Time;durP1;ratioP1;P1;durP2;ratioP2;P2;SDS_P1;SDS_P2;PMS_P1;PMS_P2;Temp;Humidity;BMP_temperature;BMP_pressure;BME280_temperature;BME280_humidity;BME280_pressure;Samples;Min_cycle;Max_cycle;Signal;HPM_P1;HPM_P2
2022/07/30 00:01:36;;;;;;;1999.90;999.90;;;14.80;99.90;;;;;;5025143;28;20056;-85
2022/07/30 00:04:02;;;;;;;1999.90;999.90;;;14.70;99.90;;;;;;5016198;28;20037;-85
2022/07/30 00:06:28;;;;;;;1999.90;999.90;;;14.80;99.90;;;;;;5043666;28;20484;-86
2022/07/30 00:08:53;;;;;;;1999.90;999.90;;;14.80;99.90;;;;;;5036465;28;20087;-85
2022/07/30 00:11:20;;;;;;;1999.90;999.90;;;14.70;99.90;;;;;;5043013;28;20951;-85
2022/07/30 00:13:46;;;;;;;1999.90;999.90;;;14.80;99.90;;;;;;5040121;28;20506;-85
2022/07/30 00:16:12;;;;;;;1999.90;999.90;;;14.80;99.90;;;;;;5039853;28;20033;-85
2022/07/30 00:18:37;;;;;;;1999.90;999.90;;;14.80;99.90;;;;;;5034681;28;20504;-90
2022/07/30 00:21:03;;;;;;;1999.90;999.90;;;14.70;99.90;;;;;;5017954;28;20497;-85
2022/07/30 00:23:31;;;;;;;1999.90;999.90;;;14.70;99.90;;;;;;5037574;28;20048;-85
2022/07/30 00:25:56;;;;;;;1999.90;999.90;;;14.70;99.90;;;;;;5029186;28;20033;-85
2022/07/30 00:28:22;;;;;;;1999.90;999.90;;;14.70;99.90;;;;;;5026279;28;20041;-85
2022/07/30 00:30:48;;;;;;;1999.90;999.90;;;14.70;99.90;;;;;;5021176;28;20056;-90
2022/07/30 00:33:13;;;;;;;1999.90;999.90;;;14.70;99.90;;;;;;5015441;28;20052;-85
2022/07/30 00:35:39;;;;;;;1999.90;999.90;;;14.70;99.90;;;;;;5019117;28;20033;-85
2022/07/30 00:38:04;;;;;;;1999.90;999.90;;;14.70;99.90;;;;;;5036872;28;20114;-85
2022/07/30 00:40:30;;;;;;;1999.90;999.90;;;14.70;99.90;;;;;;5040581;28;20077;-85
2022/07/30 00:42:56;;;;;;;1999.90;999.90;;;14.70;99.90;;;;;;5038889;28;20559;-86
2022/07/30 00:45:21;;;;;;;1999.90;999.90;;;14.70;99.90;;;;;;5035568;28;20523;-85
2022/07/30 00:47:47;;;;;;;1999.90;999.90;;;14.70;99.90;;;;;;5036696;28;20540;-85
2022/07/30 00:50:14;;;;;;;1999.90;999.90;;;14.70;99.90;;;;;;5020739;28;20038;-85
2022/07/30 00:52:41;;;;;;;1999.90;999.90;;;14.70;99.90;;;;;;5036183;28;20141;-85
2022/07/30 00:55:09;;;;;;;1999.90;999.90;;;14.70;99.90;;;;;;5034383;28;20035;-90
2022/07/30 00:57:35;;;;;;;1999.90;999.90;;;14.70;99.90;;;;;;5028314;28;20040;-86
2022/07/30 01:00:00;;;;;;;1999.90;999.90;;;14.60;99.90;;;;;;5031645;28;20039;-85
2022/07/30 01:02:26;;;;;;;1999.90;999.90;;;14.60;99.90;;;;;;5027439;28;20057;-86
2022/07/30 01:04:52;;;;;;;1999.90;999.90;;;14.70;99.90;;;;;;5039592;28;20055;-86
2022/07/30 01:07:17;;;;;;;1999.90;999.90;;;14.60;99.90;;;;;;5015221;28;20033;-87
2022/07/30 01:09:43;;;;;;;1999.90;999.90;;;14.60;99.90;;;;;;5037540;28;20478;-86
2022/07/30 01:12:12;;;;;;;1999.90;999.90;;;14.60;99.90;;;;;;5023791;28;20029;-85
2022/07/30 01:14:38;;;;;;;1999.90;999.90;;;14.60;99.90;;;;;;5041598;28;20056;-85
2022/07/30 01:17:04;;;;;;;1999.90;999.90;;;14.60;99.90;;;;;;5021930;28;20029;-87
2022/07/30 01:19:54;;;;;;;1999.90;999.90;;;14.60;99.90;;;;;;5036322;28;20523;-86
2022/07/30 01:22:23;;;;;;;1999.90;999.90;;;14.50;99.90;;;;;;5019201;28;20030;-86
2022/07/30 01:25:00;;;;;;;1999.90;999.90;;;14.50;99.90;;;;;;5036253;28;20077;-87
2022/07/30 01:27:37;;;;;;;1999.90;999.90;;;14.50;99.90;;;;;;5033325;28;20037;-86
2022/07/30 01:30:04;;;;;;;1999.90;999.90;;;14.50;99.90;;;;;;5029720;28;20033;-85
2022/07/30 01:32:32;;;;;;;1999.90;999.90;;;14.50;99.90;;;;;;5031391;28;20554;-86
2022/07/30 01:34:59;;;;;;;1999.90;999.90;;;14.50;99.90;;;;;;5036186;28;20124;-86
2022/07/30 01:37:26;;;;;;;1999.90;999.90;;;14.50;99.90;;;;;;5042188;28;20767;-86
2022/07/30 01:39:53;;;;;;;1999.90;999.90;;;14.50;99.90;;;;;;5030213;28;20034;-87
2022/07/30 01:42:20;;;;;;;1999.90;999.90;;;14.50;99.90;;;;;;5045370;28;20026;-86
2022/07/30 01:44:47;;;;;;;1999.90;999.90;;;14.50;99.90;;;;;;5040636;28;20036;-87
2022/07/30 01:47:15;;;;;;;1999.90;999.90;;;14.50;99.90;;;;;;5022662;28;20021;-86
2022/07/30 01:49:43;;;;;;;1999.90;999.90;;;14.60;99.90;;;;;;5041222;28;20476;-86
2022/07/30 01:52:10;;;;;;;1999.90;999.90;;;14.60;99.90;;;;;;5038211;28;20508;-86
2022/07/30 01:54:38;;;;;;;1999.90;999.90;;;14.60;99.90;;;;;;5036326;28;20036;-86
2022/07/30 01:57:06;;;;;;;1999.90;999.90;;;14.70;99.90;;;;;;5029580;28;20128;-85
2022/07/30 01:59:34;;;;;;;1999.90;999.90;;;14.70;99.90;;;;;;5036620;28;20024;-86
2022/07/30 02:02:00;;;;;;;1999.90;999.90;;;14.60;99.90;;;;;;5029879;28;20053;-86
2022/07/30 02:04:26;;;;;;;1999.90;999.90;;;14.70;99.90;;;;;;5036448;28;20523;-86
2022/07/30 02:07:01;;;;;;;1999.90;999.90;;;14.70;99.90;;;;;;5026366;28;20084;-90
2022/07/30 02:09:42;;;;;;;1999.90;999.90;;;14.70;99.90;;;;;;5045067;28;20493;-86
2022/07/30 02:12:28;;;;;;;1999.90;999.90;;;14.70;99.90;;;;;;5034828;28;20025;-86
2022/07/30 02:15:11;;;;;;;1999.90;999.90;;;14.80;99.90;;;;;;5043428;28;20205;-86
2022/07/30 02:17:44;;;;;;;1999.90;999.90;;;14.80;99.90;;;;;;5038594;28;20095;-86
2022/07/30 02:20:13;;;;;;;1999.90;999.90;;;14.80;99.90;;;;;;5019141;28;20025;-87
2022/07/30 02:22:43;;;;;;;1999.90;999.90;;;14.80;99.90;;;;;;5034473;28;20078;-86
2022/07/30 02:25:12;;;;;;;1999.90;999.90;;;14.80;99.90;;;;;;5034740;28;20026;-86
2022/07/30 02:27:41;;;;;;;1999.90;999.90;;;14.80;99.90;;;;;;5030038;28;20470;-86
2022/07/30 02:30:07;;;;;;;1999.90;999.90;;;14.80;99.90;;;;;;5033953;28;20041;-87
2022/07/30 02:32:37;;;;;;;1999.90;999.90;;;14.80;99.90;;;;;;5033472;28;20107;-86
2022/07/30 02:35:19;;;;;;;1999.90;999.90;;;14.80;99.90;;;;;;5036692;28;20116;-86
2022/07/30 02:37:48;;;;;;;1999.90;999.90;;;14.80;99.90;;;;;;5037123;28;20508;-87
2022/07/30 02:40:16;;;;;;;1999.90;999.90;;;14.80;99.90;;;;;;5028392;28;20032;-86
2022/07/30 02:42:48;;;;;;;1999.90;999.90;;;14.80;99.90;;;;;;5033765;28;20041;-85
2022/07/30 02:45:16;;;;;;;1999.90;999.90;;;14.70;99.90;;;;;;5037084;28;20033;-86
2022/07/30 02:47:44;;;;;;;1999.90;999.90;;;14.80;99.90;;;;;;5038663;28;20100;-88
2022/07/30 02:50:11;;;;;;;1999.90;999.90;;;14.80;99.90;;;;;;5037568;28;20025;-86
2022/07/30 02:52:39;;;;;;;1999.90;999.90;;;14.70;99.90;;;;;;5035346;28;20029;-86
2022/07/30 02:55:08;;;;;;;1999.90;999.90;;;14.70;99.90;;;;;;5027121;28;20021;-86
2022/07/30 02:57:34;;;;;;;1999.90;999.90;;;14.70;99.90;;;;;;5033493;28;20029;-85
2022/07/30 03:00:03;;;;;;;1999.90;999.90;;;14.70;99.90;;;;;;5010743;28;20032;-85
2022/07/30 03:02:29;;;;;;;1999.90;999.90;;;14.60;99.90;;;;;;5028557;28;20053;-86
2022/07/30 03:04:57;;;;;;;1999.90;999.90;;;14.60;99.90;;;;;;5021267;28;20029;-85
2022/07/30 03:07:25;;;;;;;1999.90;999.90;;;14.50;99.90;;;;;;5037917;28;20033;-86
2022/07/30 03:09:54;;;;;;;1999.90;999.90;;;14.60;99.90;;;;;;5042089;28;20484;-89
2022/07/30 03:12:21;;;;;;;1999.90;999.90;;;14.60;99.90;;;;;;5037776;28;20025;-87
2022/07/30 03:14:47;;;;;;;1999.90;999.90;;;14.60;99.90;;;;;;5033751;28;20049;-86
2022/07/30 03:17:16;;;;;;;1999.90;999.90;;;14.60;99.90;;;;;;5039621;28;20021;-86
2022/07/30 03:19:43;;;;;;;1999.90;999.90;;;14.60;99.90;;;;;;5039510;28;20147;-87
2022/07/30 03:22:11;;;;;;;1999.90;999.90;;;14.70;99.90;;;;;;5038947;28;20021;-86
2022/07/30 03:24:39;;;;;;;1999.90;999.90;;;14.70;99.90;;;;;;5034857;28;20496;-86
2022/07/30 03:27:06;;;;;;;1999.90;999.90;;;14.70;99.90;;;;;;5046431;28;20078;-86
2022/07/30 03:29:34;;;;;;;1999.90;999.90;;;14.70;99.90;;;;;;5034496;28;20040;-88
2022/07/30 03:32:00;;;;;;;1999.90;999.90;;;14.70;99.90;;;;;;5028920;28;20064;-86
2022/07/30 03:34:26;;;;;;;1999.90;999.90;;;14.70;99.90;;;;;;5037352;28;20056;-86
2022/07/30 03:36:52;;;;;;;1999.90;999.90;;;14.70;99.90;;;;;;5042993;28;20033;-85
2022/07/30 03:39:19;;;;;;;1999.90;999.90;;;14.70;99.90;;;;;;5041756;28;20057;-85
2022/07/30 03:41:46;;;;;;;1999.90;999.90;;;14.70;99.90;;;;;;5034388;28;20025;-87
2022/07/30 03:44:12;;;;;;;1999.90;999.90;;;14.60;99.90;;;;;;5038501;28;20033;-86
2022/07/30 03:46:40;;;;;;;1999.90;999.90;;;14.70;99.90;;;;;;5035089;28;20037;-85
2022/07/30 03:49:09;;;;;;;1999.90;999.90;;;14.70;99.90;;;;;;5017214;28;20056;-85
2022/07/30 03:51:36;;;;;;;1999.90;999.90;;;14.70;99.90;;;;;;5021378;28;20035;-87
2022/07/30 03:54:04;;;;;;;1999.90;999.90;;;14.70;99.90;;;;;;5034702;28;20086;-86
2022/07/30 03:56:30;;;;;;;1999.90;999.90;;;14.70;99.90;;;;;;5011349;28;20022;-85
2022/07/30 03:58:56;;;;;;;1999.90;999.90;;;14.70;99.90;;;;;;5032093;28;20064;-86
2022/07/30 04:01:25;;;;;;;1999.90;999.90;;;14.70;99.90;;;;;;5028322;28;20465;-85
2022/07/30 04:03:51;;;;;;;1999.90;999.90;;;14.70;99.90;;;;;;5029863;28;20037;-87
2022/07/30 04:06:17;;;;;;;1999.90;999.90;;;14.70;99.90;;;;;;5042210;28;20075;-85
2022/07/30 04:08:42;;;;;;;1999.90;999.90;;;14.70;99.90;;;;;;5042771;28;20439;-86
2022/07/30 04:11:08;;;;;;;1999.90;999.90;;;14.70;99.90;;;;;;5045331;28;20029;-85
2022/07/30 04:13:34;;;;;;;1999.90;999.90;;;14.80;99.90;;;;;;5038663;28;20782;-85
2022/07/30 04:16:13;;;;;;;1999.90;999.90;;;14.70;99.90;;;;;;5019682;28;20508;-87
2022/07/30 04:18:44;;;;;;;1999.90;999.90;;;14.70;99.90;;;;;;5036163;28;20098;-85
2022/07/30 04:21:13;;;;;;;1999.90;999.90;;;14.80;99.90;;;;;;5033641;28;20059;-85
2022/07/30 04:23:40;;;;;;;1999.90;999.90;;;14.80;99.90;;;;;;5033777;28;20037;-91
2022/07/30 04:26:07;;;;;;;1999.90;999.90;;;14.80;99.90;;;;;;5031727;28;20484;-85
2022/07/30 04:28:34;;;;;;;1999.90;999.90;;;14.70;99.90;;;;;;5031680;28;20507;-85
2022/07/30 04:30:59;;;;;;;1999.90;999.90;;;14.80;99.90;;;;;;5032930;28;20634;-85
2022/07/30 04:33:25;;;;;;;1999.90;999.90;;;14.80;99.90;;;;;;5016128;28;20033;-86
2022/07/30 04:35:51;;;;;;;1999.90;999.90;;;14.80;99.90;;;;;;5041172;28;20516;-87
2022/07/30 04:38:18;;;;;;;1999.90;999.90;;;14.80;99.90;;;;;;5044208;28;20420;-86
2022/07/30 04:40:44;;;;;;;1999.90;999.90;;;14.80;99.90;;;;;;5044809;28;20032;-85
2022/07/30 04:43:09;;;;;;;1999.90;999.90;;;14.90;99.90;;;;;;5016273;28;20029;-86
2022/07/30 04:45:35;;;;;;;1999.90;999.90;;;14.90;99.90;;;;;;5021991;28;20508;-86
2022/07/30 04:48:01;;;;;;;1999.90;999.90;;;14.90;99.90;;;;;;5033003;28;20029;-87
2022/07/30 04:50:28;;;;;;;1999.90;999.90;;;14.90;99.90;;;;;;5036516;28;20033;-87
2022/07/30 04:52:57;;;;;;;1999.90;999.90;;;14.90;99.90;;;;;;5034155;28;20463;-86
2022/07/30 04:55:23;;;;;;;1999.90;999.90;;;14.90;99.90;;;;;;5032091;28;20439;-86
2022/07/30 04:57:51;;;;;;;1999.90;999.90;;;14.90;99.90;;;;;;5012663;28;20030;-87
2022/07/30 05:00:17;;;;;;;1999.90;999.90;;;14.80;99.90;;;;;;5025232;28;20038;-86
2022/07/30 05:02:45;;;;;;;1999.90;999.90;;;14.80;99.90;;;;;;5028643;28;20042;-87
2022/07/30 05:05:13;;;;;;;1999.90;999.90;;;14.80;99.90;;;;;;5018421;28;20502;-86
2022/07/30 05:07:39;;;;;;;1999.90;999.90;;;14.80;99.90;;;;;;5023453;28;20037;-86
2022/07/30 05:10:06;;;;;;;1999.90;999.90;;;14.70;99.90;;;;;;5039290;28;20057;-86
2022/07/30 05:12:38;;;;;;;1999.90;999.90;;;14.70;99.90;;;;;;5036529;28;20028;-87
2022/07/30 05:15:08;;;;;;;1999.90;999.90;;;14.80;99.90;;;;;;5030114;28;20507;-86
2022/07/30 05:17:35;;;;;;;1999.90;999.90;;;14.90;99.90;;;;;;5038714;28;20032;-87
2022/07/30 05:20:01;;;;;;;1999.90;999.90;;;15.00;99.90;;;;;;5028502;28;20140;-87
2022/07/30 05:22:28;;;;;;;1999.90;999.90;;;15.10;99.90;;;;;;5023650;28;20187;-86
2022/07/30 05:24:55;;;;;;;1999.90;999.90;;;15.10;99.90;;;;;;5033146;28;20025;-86
2022/07/30 05:27:21;;;;;;;1999.90;999.90;;;15.20;99.90;;;;;;5033313;28;20057;-86
2022/07/30 05:29:46;;;;;;;1999.90;999.90;;;15.20;99.90;;;;;;5008599;28;20484;-85
2022/07/30 05:32:12;;;;;;;1999.90;999.90;;;15.30;99.90;;;;;;5026280;28;20033;-86
2022/07/30 05:34:38;;;;;;;1999.90;999.90;;;15.30;99.90;;;;;;5031447;28;20029;-86
2022/07/30 05:37:05;;;;;;;1999.90;999.90;;;15.40;99.90;;;;;;5037949;28;20035;-86
2022/07/30 05:39:31;;;;;;;1999.90;999.90;;;15.40;99.90;;;;;;5020942;28;20033;-85
2022/07/30 05:41:57;;;;;;;1999.90;999.90;;;15.60;99.90;;;;;;5037033;28;20684;-89
2022/07/30 05:44:22;;;;;;;1999.90;999.90;;;15.60;99.90;;;;;;5034760;28;20035;-86
2022/07/30 05:46:48;;;;;;;1999.90;999.90;;;15.60;99.90;;;;;;5036148;28;20065;-86
2022/07/30 05:49:14;;;;;;;1999.90;999.90;;;15.70;99.90;;;;;;5019344;28;20072;-86
2022/07/30 05:51:40;;;;;;;1999.90;999.90;;;15.70;99.90;;;;;;5031028;28;20374;-86
2022/07/30 05:54:06;;;;;;;1999.90;999.90;;;15.80;99.90;;;;;;5032836;28;20021;-90
2022/07/30 05:56:33;;;;;;;1999.90;999.90;;;15.80;99.90;;;;;;5027677;28;20044;-87
2022/07/30 05:58:59;;;;;;;1999.90;999.90;;;15.90;99.90;;;;;;5034305;28;20095;-86
2022/07/30 06:01:24;;;;;;;1999.90;999.90;;;15.90;99.90;;;;;;5027939;28;20041;-86
2022/07/30 06:03:50;;;;;;;1999.90;999.90;;;16.10;99.90;;;;;;5039154;28;20593;-85
2022/07/30 06:06:16;;;;;;;1999.90;999.90;;;16.00;99.90;;;;;;5024701;28;20040;-88
2022/07/30 06:08:42;;;;;;;1999.90;999.90;;;16.10;99.90;;;;;;5037419;28;20408;-85
2022/07/30 06:11:08;;;;;;;1999.90;999.90;;;16.20;99.90;;;;;;5021952;28;20033;-84
2022/07/30 06:13:36;;;;;;;1999.90;999.90;;;16.20;99.90;;;;;;5023754;28;20396;-85
2022/07/30 06:16:03;;;;;;;1999.90;999.90;;;16.30;99.90;;;;;;5023839;28;20053;-84
2022/07/30 06:18:28;;;;;;;1999.90;999.90;;;16.40;99.90;;;;;;5030909;28;20500;-86
2022/07/30 06:20:54;;;;;;;1999.90;999.90;;;16.40;99.90;;;;;;5029466;28;20034;-86
2022/07/30 06:23:20;;;;;;;1999.90;999.90;;;16.50;99.90;;;;;;5025372;28;20401;-84
2022/07/30 06:25:48;;;;;;;1999.90;999.90;;;16.60;99.90;;;;;;5030731;28;20061;-84
2022/07/30 06:28:14;;;;;;;1999.90;999.90;;;16.80;99.90;;;;;;5026310;28;20076;-86
2022/07/30 06:30:40;;;;;;;1999.90;999.90;;;16.80;99.90;;;;;;5025249;28;20033;-85
2022/07/30 06:33:06;;;;;;;1999.90;999.90;;;17.10;99.90;;;;;;5030664;28;20098;-87
2022/07/30 06:35:33;;;;;;;1999.90;999.90;;;17.00;99.90;;;;;;5038132;28;20112;-86
2022/07/30 06:37:59;;;;;;;1999.90;999.90;;;17.10;99.90;;;;;;5033561;28;20588;-86
2022/07/30 06:40:24;;;;;;;1999.90;999.90;;;17.20;99.90;;;;;;5033177;28;20504;-87
2022/07/30 06:42:50;;;;;;;1999.90;999.90;;;17.20;99.90;;;;;;5026823;28;20036;-85
2022/07/30 06:45:17;;;;;;;1886.97;942.05;;;17.30;99.90;;;;;;5024905;28;20105;-85
2022/07/30 06:47:43;;;;;;;1853.43;722.38;;;17.40;99.90;;;;;;5023249;28;20030;-86
2022/07/30 06:50:09;;;;;;;1999.90;651.65;;;17.40;99.90;;;;;;5019641;28;20083;-86
2022/07/30 06:52:34;;;;;;;1834.30;721.30;;;17.40;99.90;;;;;;5006540;28;20381;-86
2022/07/30 06:55:00;;;;;;;1999.90;999.90;;;17.50;99.90;;;;;;5021994;28;20034;-86
2022/07/30 06:57:26;;;;;;;1999.90;706.75;;;17.70;99.90;;;;;;5019610;28;20432;-85
2022/07/30 06:59:51;;;;;;;1999.90;786.88;;;17.70;99.90;;;;;;5010587;28;20566;-85
2022/07/30 07:02:17;;;;;;;1999.90;999.90;;;17.90;99.90;;;;;;5024386;28;20053;-85
2022/07/30 07:04:43;;;;;;;1999.90;989.65;;;18.00;99.90;;;;;;5042384;28;20079;-86
2022/07/30 07:07:09;;;;;;;1999.90;615.13;;;18.40;99.90;;;;;;5041198;28;20067;-84
2022/07/30 07:09:34;;;;;;;1999.90;640.28;;;18.50;99.90;;;;;;5022442;28;20412;-86
2022/07/30 07:12:00;;;;;;;1867.28;881.53;;;18.60;99.90;;;;;;5029375;28;20117;-87
2022/07/30 07:14:26;;;;;;;1999.90;614.50;;;18.70;94.20;;;;;;5034074;28;20045;-85
2022/07/30 07:16:51;;;;;;;1999.90;638.78;;;18.80;99.90;;;;;;5026940;28;21301;-84
2022/07/30 07:19:17;;;;;;;1999.90;999.90;;;19.00;99.90;;;;;;5026701;28;20044;-84
2022/07/30 07:21:43;;;;;;;1999.90;885.70;;;19.10;95.70;;;;;;5028868;28;20047;-85
2022/07/30 07:24:08;;;;;;;1999.90;999.90;;;19.10;95.30;;;;;;5032381;28;20090;-84
2022/07/30 07:26:35;;;;;;;1999.90;830.58;;;19.20;94.10;;;;;;5032925;28;20033;-84
2022/07/30 07:29:01;;;;;;;1999.90;999.90;;;19.30;96.50;;;;;;5026878;28;20068;-84
2022/07/30 07:31:27;;;;;;;1999.90;852.58;;;19.20;93.40;;;;;;5025342;28;20043;-84
2022/07/30 07:33:55;;;;;;;1878.13;842.72;;;19.40;98.20;;;;;;5034940;28;20045;-85
2022/07/30 07:36:21;;;;;;;1999.90;794.15;;;19.40;92.80;;;;;;5032557;28;20025;-85
2022/07/30 07:38:47;;;;;;;1999.90;999.90;;;19.60;94.20;;;;;;5025014;28;20029;-86
2022/07/30 07:41:12;;;;;;;1999.90;903.47;;;19.70;92.40;;;;;;5016001;28;20056;-86
2022/07/30 07:43:39;;;;;;;1999.90;840.63;;;19.80;92.10;;;;;;5029437;28;20506;-86
2022/07/30 07:46:05;;;;;;;1999.90;762.97;;;20.00;91.40;;;;;;5024171;28;20144;-84
2022/07/30 07:48:31;;;;;;;1060.45;845.05;;;20.00;92.20;;;;;;5023339;28;20137;-83
2022/07/30 07:50:57;;;;;;;1676.32;922.97;;;20.00;87.90;;;;;;5031514;28;20788;-86
2022/07/30 07:53:22;;;;;;;1249.85;747.13;;;19.90;87.30;;;;;;5024728;28;20041;-87
2022/07/30 07:55:48;;;;;;;1999.90;906.90;;;19.90;86.90;;;;;;5025867;28;20083;-88
2022/07/30 07:58:14;;;;;;;1068.32;580.03;;;20.00;91.90;;;;;;5010442;28;20033;-83
2022/07/30 08:00:40;;;;;;;1184.22;876.92;;;20.10;88.30;;;;;;5023018;28;20041;-83
2022/07/30 08:03:05;;;;;;;1122.68;812.00;;;19.80;87.30;;;;;;5029708;28;20079;-85
2022/07/30 08:05:31;;;;;;;1423.18;869.70;;;19.90;86.80;;;;;;5023272;28;20065;-87
2022/07/30 08:07:57;;;;;;;1999.90;572.40;;;20.00;86.90;;;;;;5041657;28;20063;-86
2022/07/30 08:10:23;;;;;;;1651.60;863.60;;;20.10;91.20;;;;;;5039154;28;20643;-86
2022/07/30 08:12:49;;;;;;;799.63;742.15;;;20.40;88.10;;;;;;5034430;28;20104;-87
2022/07/30 08:15:15;;;;;;;1155.63;778.17;;;20.30;82.20;;;;;;5018750;28;20108;-90
2022/07/30 08:17:45;;;;;;;1393.38;822.85;;;20.20;83.60;;;;;;5029147;28;20025;-86
2022/07/30 08:20:13;;;;;;;840.75;771.80;;;20.20;85.10;;;;;;5030779;28;20021;-86
2022/07/30 08:22:39;;;;;;;785.42;717.50;;;20.40;81.50;;;;;;5028191;28;20483;-86
2022/07/30 08:25:05;;;;;;;780.20;714.53;;;20.30;80.10;;;;;;5013241;28;20561;-86
2022/07/30 08:27:32;;;;;;;1483.13;800.28;;;20.50;78.80;;;;;;5028582;28;20055;-84
2022/07/30 08:30:01;;;;;;;1343.68;786.25;;;20.80;76.50;;;;;;5030153;28;20030;-85
2022/07/30 08:32:27;;;;;;;806.42;746.00;;;21.30;81.20;;;;;;5028194;28;20038;-86
2022/07/30 08:34:52;;;;;;;861.47;798.33;;;21.50;78.00;;;;;;5043755;28;20033;-85
2022/07/30 08:37:18;;;;;;;711.63;666.22;;;21.50;73.40;;;;;;5026452;28;20044;-85
2022/07/30 08:39:43;;;;;;;852.58;763.53;;;21.20;73.50;;;;;;5039384;28;20060;-86
2022/07/30 08:42:12;;;;;;;771.40;719.35;;;21.60;76.50;;;;;;5034618;28;20141;-87
2022/07/30 08:44:40;;;;;;;1316.35;778.72;;;22.10;69.30;;;;;;5037147;28;20033;-86
2022/07/30 08:47:08;;;;;;;1010.40;843.78;;;22.50;78.80;;;;;;5033074;28;20029;-86
2022/07/30 08:49:36;;;;;;;1747.57;804.22;;;22.70;72.00;;;;;;5031435;28;20116;-87
2022/07/30 08:52:01;;;;;;;713.00;666.63;;;22.20;72.60;;;;;;5030128;28;20682;-87
2022/07/30 08:54:28;;;;;;;577.67;545.10;;;21.70;68.60;;;;;;5032859;28;20040;-87
2022/07/30 08:56:54;;;;;;;642.33;599.40;;;21.80;68.30;;;;;;5030215;28;20029;-85
2022/07/30 08:59:23;;;;;;;451.90;426.70;;;22.30;70.60;;;;;;5024227;28;20029;-90
2022/07/30 09:01:50;;;;;;;486.95;459.17;;;22.60;65.10;;;;;;5030841;28;20108;-85
2022/07/30 09:04:16;;;;;;;375.17;358.45;;;22.30;64.20;;;;;;5041616;28;20021;-84
2022/07/30 09:06:43;;;;;;;595.55;558.85;;;22.40;63.40;;;;;;5037847;28;20063;-85
2022/07/30 09:09:08;;;;;;;403.95;385.08;;;22.70;60.60;;;;;;5049368;28;20029;-86
2022/07/30 09:11:35;;;;;;;365.70;348.85;;;23.00;57.20;;;;;;5038098;28;20595;-86
2022/07/30 09:14:11;;;;;;;188.88;181.13;;;23.40;55.00;;;;;;5031374;28;20036;-86
2022/07/30 09:16:39;;;;;;;186.13;177.00;;;23.30;51.90;;;;;;5032767;28;20029;-85
2022/07/30 09:19:17;;;;;;;122.50;117.32;;;22.80;53.70;;;;;;5030128;28;20042;-85
2022/07/30 09:21:58;;;;;;;184.40;176.25;;;22.60;52.90;;;;;;5000797;28;20083;-86
2022/07/30 09:24:24;;;;;;;209.50;200.80;;;22.90;52.90;;;;;;5028245;28;20048;-85
2022/07/30 09:27:01;;;;;;;217.77;208.93;;;22.90;52.40;;;;;;5032601;28;20492;-85
2022/07/30 09:29:30;;;;;;;121.68;116.90;;;23.00;49.30;;;;;;5028453;28;20043;-86
2022/07/30 09:32:01;;;;;;;64.47;61.77;;;23.30;47.60;;;;;;5026510;28;20449;-85
2022/07/30 09:34:34;;;;;;;67.45;64.63;;;23.50;46.10;;;;;;5023853;28;20029;-84
2022/07/30 09:37:16;;;;;;;150.27;144.25;;;23.40;45.70;;;;;;5034507;28;20112;-85
2022/07/30 09:39:42;;;;;;;64.45;61.75;;;23.30;49.50;;;;;;5038116;28;20148;-85
2022/07/30 09:42:26;;;;;;;70.25;67.20;;;23.10;45.90;;;;;;5032713;28;20088;-85
2022/07/30 09:45:08;;;;;;;71.75;68.75;;;22.90;46.20;;;;;;5030652;28;20029;-87
2022/07/30 09:47:48;;;;;;;63.80;61.30;;;23.60;46.10;;;;;;5027387;28;20087;-85
2022/07/30 09:50:15;;;;;;;55.45;53.22;;;24.10;45.40;;;;;;5031665;28;20616;-91
2022/07/30 09:52:44;;;;;;;113.30;108.78;;;23.40;45.20;;;;;;5032681;28;20032;-86
2022/07/30 09:55:10;;;;;;;39.35;37.70;;;23.50;46.10;;;;;;5015072;28;20031;-86
2022/07/30 09:57:55;;;;;;;51.25;49.13;;;23.90;42.90;;;;;;5018419;28;20033;-86
2022/07/30 10:00:24;;;;;;;41.90;40.15;;;23.40;42.20;;;;;;5026322;28;20030;-85
2022/07/30 10:02:51;;;;;;;38.88;37.17;;;23.80;42.30;;;;;;5035753;28;20044;-86
2022/07/30 10:05:18;;;;;;;91.40;87.65;;;24.60;40.20;;;;;;5041264;28;20551;-86
2022/07/30 10:07:48;;;;;;;77.00;73.47;;;24.10;41.40;;;;;;5022845;28;20025;-86
2022/07/30 10:10:15;;;;;;;39.15;37.45;;;23.70;42.00;;;;;;5035099;28;20020;-87
2022/07/30 10:12:41;;;;;;;46.20;44.22;;;23.30;41.60;;;;;;5036454;28;20742;-86
2022/07/30 10:15:08;;;;;;;84.22;80.57;;;23.30;42.50;;;;;;5038622;28;20041;-85
2022/07/30 10:17:37;;;;;;;65.88;63.28;;;23.60;42.50;;;;;;5034355;28;20032;-86
2022/07/30 10:20:06;;;;;;;31.38;30.00;;;23.60;44.00;;;;;;5036724;28;20041;-86
2022/07/30 10:22:33;;;;;;;39.85;37.55;;;24.40;41.50;;;;;;5029939;28;20033;-86
2022/07/30 10:24:59;;;;;;;49.83;47.70;;;24.70;38.50;;;;;;5019385;28;20061;-86
2022/07/30 10:27:25;;;;;;;26.90;25.45;;;25.00;39.70;;;;;;5030847;28;20033;-86
2022/07/30 10:29:51;;;;;;;43.97;42.17;;;24.40;39.40;;;;;;5033614;28;20036;-86
2022/07/30 10:32:23;;;;;;;48.78;46.67;;;24.10;39.50;;;;;;5026273;28;20033;-85
2022/07/30 10:34:49;;;;;;;30.13;28.63;;;25.10;40.50;;;;;;5072930;28;20032;-86
2022/07/30 10:37:15;;;;;;;30.00;28.75;;;25.40;37.70;;;;;;5041264;28;20032;-85
2022/07/30 10:40:09;;;;;;;27.10;25.88;;;25.50;36.10;;;;;;5038181;28;20116;-85
2022/07/30 10:42:56;;;;;;;30.67;29.08;;;25.00;35.50;;;;;;5038820;28;20025;-86
2022/07/30 10:45:48;;;;;;;34.33;32.80;;;24.80;37.40;;;;;;5036428;28;20029;-86
2022/07/30 10:48:15;;;;;;;24.65;23.55;;;25.20;36.00;;;;;;5035344;28;20072;-86
2022/07/30 10:50:53;;;;;;;23.70;22.30;;;24.90;37.90;;;;;;5038709;28;20032;-86
2022/07/30 10:53:46;;;;;;;35.35;33.63;;;24.90;38.70;;;;;;5034173;28;20033;-85
2022/07/30 10:56:19;;;;;;;33.42;31.98;;;25.20;39.80;;;;;;5030797;28;20078;-86
2022/07/30 10:59:08;;;;;;;39.50;37.75;;;25.50;35.80;;;;;;5058689;28;20029;-87
2022/07/30 11:01:46;;;;;;;35.47;34.00;;;25.10;38.80;;;;;;5036683;28;20049;-86
2022/07/30 11:04:18;;;;;;;39.53;37.92;;;24.80;38.40;;;;;;5042385;28;20041;-89
2022/07/30 11:06:44;;;;;;;33.10;31.33;;;24.40;39.00;;;;;;5030913;28;20392;-86
2022/07/30 11:09:39;;;;;;;46.40;44.15;;;25.10;39.70;;;;;;5035087;28;20086;-85
2022/07/30 11:12:06;;;;;;;35.22;33.63;;;26.50;37.00;;;;;;5038065;28;20048;-86
2022/07/30 11:14:47;;;;;;;34.35;32.97;;;27.70;36.40;;;;;;5039281;28;20473;-86
2022/07/30 11:17:17;;;;;;;291.48;162.70;;;28.30;31.70;;;;;;5034347;28;20037;-85
2022/07/30 11:20:05;;;;;;;198.07;189.63;;;27.70;30.70;;;;;;5020185;28;20025;-86
2022/07/30 11:22:39;;;;;;;362.25;346.08;;;26.40;31.80;;;;;;5031107;28;20100;-85
2022/07/30 11:25:07;;;;;;;582.35;550.83;;;25.50;36.20;;;;;;5031880;28;20053;-88
2022/07/30 11:27:41;;;;;;;559.10;526.28;;;25.30;37.10;;;;;;5030476;28;20030;-86
2022/07/30 11:30:16;;;;;;;449.70;428.67;;;27.00;35.00;;;;;;5032985;28;20519;-85
2022/07/30 11:32:44;;;;;;;533.47;505.30;;;27.60;31.10;;;;;;5041429;28;20123;-85
2022/07/30 11:35:23;;;;;;;319.70;305.00;;;27.20;33.90;;;;;;5025226;28;20044;-86
2022/07/30 11:38:18;;;;;;;514.28;486.45;;;26.50;33.10;;;;;;5037356;28;20069;-85
2022/07/30 11:40:50;;;;;;;404.10;385.02;;;26.40;38.20;;;;;;5041680;28;20044;-86
2022/07/30 11:43:28;;;;;;;483.63;459.40;;;27.30;36.80;;;;;;5032071;28;20021;-85
2022/07/30 11:46:21;;;;;;;379.45;362.67;;;29.00;34.00;;;;;;5018344;28;20056;-85
2022/07/30 11:49:00;;;;;;;439.63;414.27;;;29.60;29.00;;;;;;5028079;28;20091;-85
2022/07/30 11:51:26;;;;;;;337.13;321.88;;;28.90;28.40;;;;;;5011630;28;20087;-86
2022/07/30 11:54:06;;;;;;;419.13;397.85;;;27.80;31.40;;;;;;5017038;28;20429;-85
2022/07/30 11:56:32;;;;;;;275.30;263.48;;;26.70;33.90;;;;;;5030618;28;20676;-86
2022/07/30 11:59:03;;;;;;;246.45;236.68;;;27.40;32.50;;;;;;5024148;28;20022;-86
2022/07/30 12:01:29;;;;;;;264.35;253.95;;;29.10;28.70;;;;;;5033759;28;20037;-86
2022/07/30 12:03:55;;;;;;;247.77;233.63;;;29.80;30.20;;;;;;5041467;28;20075;-87
2022/07/30 12:06:22;;;;;;;193.30;185.75;;;30.10;27.10;;;;;;5041005;28;20032;-86
2022/07/30 12:08:50;;;;;;;304.05;290.60;;;30.40;27.20;;;;;;5042826;28;20032;-86
2022/07/30 12:11:16;;;;;;;184.27;176.10;;;30.80;28.60;;;;;;5033029;28;20043;-85